logo
Search for airport 
image banner adimage banner adimage banner ad
image banner ad

EHS064 - Noordwijk

Located in , Netherlands

ICAO - , IATA -

Data provided by Airmate  

General information

Coordinates: N52°14'27" E4°25'34"
Elevation is 49 feet MSL.
 
View others Airports in Zuid-Holland

Operational data

Special qualification required
Current time UTC:
Current local time:
Weather at : EHAM - Amsterdam/Schiphol ( 24 km )
METAR: EHAM 130325Z 24008KT 220V280 8000 -SHRA FEW007 SCT018TCU BKN030 14/14 Q1009 RESHRA TEMPO 5000 SHRA SCT018CB BKN020
TAF: TAF EHAM 122322Z 1300/1406 26007KT 9999 FEW011 SCT017 TEMPO 1300/1318 BKN017 PROB40 TEMPO 1300/1315 7000 SHRA BKN011 SCT018CB BECMG 1306/1309 26017KT PROB40 TEMPO 1315/1317 6000 -RADZ -SHRA SCT008 BKN011 FEW018TCU BECMG 1318/1321 22010KT
View NOTAMs / SUP AIP / TFR affecting this airport [VIEW]
Communications frequencies: [VIEW]

Runways:

Airport contact information

Address: Netherlands

Satellite view of EHS064